Tawas City, MI

4:53 AM EST on February 22, 2017 (GMT -0500)
Huron Shore - 1 mi north of Ausable Point | | Change Station
Active Advisory: Dense Fog Advisory

Elev 600 ft 44.36 °N, 83.34 °W | Updated 26 seconds ago

Fog
Fog
37.9 °F
Feels Like 38 °F
N
2.2
Wind Variable Wind from SSW

Today
High -- | Low -- °F
--% Chance of Precip.
Yesterday
High -- | Low -- °F
Precip. -- in
Pressure 29.80 in
Visibility 0.2 miles
Clouds Overcast 200 ft
Windchill 38 °F
Dew Point 38 °F
Humidity 99%
Rainfall 0.00 in
Snow Depth Not available.
7:22 AM 6:13 PM
Waning Crescent, 18% visible
METAR KOSC 220934Z AUTO 21006KT 1/4SM FG OVC002 05/05 A2980 RMK AO2 T00500045
Pressure 29.80 in
Visibility 0.2 miles
Clouds Overcast 200 ft
Windchill 38 °F
Dew Point 38 °F
Humidity 99%
Rainfall 0.00 in
Snow Depth Not available.
7:22 AM 6:13 PM
Waning Crescent, 18% visible
METAR KOSC 220934Z AUTO 21006KT 1/4SM FG OVC002 05/05 A2980 RMK AO2 T00500045

Get Your Daily Forecast Email!

Thanks for signing up!

Be on the lookout for a verification email in your inbox.

You'll start receiving the daily forecast at 8 AM.

×

10-Day Weather Forecast

Almanac

Astronomy

Feb. 22, 2017 Rise Set
Actual Time
Civil Twilight
Nautical Twilight
Astronomical Twilight
Moon
Length of Visible Light
Length of Day
Tomorrow will be .
, % of the Moon is Illuminated

Today's Extremes

State Highs State Lows

Community

WunderPhotos

Upload Photos

1,962,540 photos uploaded!

WunderBlog® & News

Nearby

Air Quality

  Air Quality AQ Index Pollutant
Not available.

Snow Depth

Station Depth Elevation

Earthquake Activity

City Distance Mag. Time & Date
Minimum magnitude displayed is 2.5.

Coastal Water Temperatures

Place Temperature

Stations

Nearby Weather Stations

Station Location Temp. Windchill Dew Point Humidity Wind Precip. Elev Updated Type
                   

Watches & Warnings

Dense Fog Advisory
Issued: 4:44 AM EST Feb. 22, 2017 – National Weather Service

... Dense fog advisory remains in effect until 10 am EST this
morning...

* visibility... reduced to a quarter mile or less from Houghton
Lake east to Saginaw Bay.

* Impacts... expect slow travel conditions for the morning
commute.

Precautionary/preparedness actions...

A dense fog advisory means visibilities will frequently be
reduced to less than one quarter mile. If driving... slow down...
use your headlights... and leave plenty of distance ahead of you.
Use extra care near school bus stops.



Jz